createdAt,value
2022-08-17T00:02:01.592Z,46.72
2022-08-17T00:06:16.541Z,46.57
2022-08-17T00:10:16.304Z,46.51
2022-08-17T00:14:24.700Z,46.17
2022-08-17T00:19:06.323Z,46.01
2022-08-17T00:22:47.831Z,46.37
2022-08-17T00:26:49.531Z,46.38
2022-08-17T00:30:53.368Z,46.52
2022-08-17T00:34:59.176Z,47.02
2022-08-17T00:39:01.471Z,47.39
2022-08-17T00:43:12.711Z,47.71
2022-08-17T00:47:13.633Z,48.05
2022-08-17T00:51:21.162Z,47.93
2022-08-17T00:55:23.945Z,47.76
2022-08-17T00:59:28.231Z,48.00
2022-08-17T01:03:31.929Z,48.38
2022-08-17T01:07:35.057Z,48.89
2022-08-17T01:11:43.665Z,49.03
2022-08-17T01:15:46.556Z,48.93
2022-08-17T01:19:48.879Z,49.02
2022-08-17T01:23:52.246Z,48.65
2022-08-17T01:27:52.674Z,48.08
2022-08-17T01:31:57.311Z,47.57
2022-08-17T01:35:58.673Z,47.24
2022-08-17T01:40:11.799Z,48.07
2022-08-17T01:44:18.049Z,48.55
2022-08-17T01:48:20.786Z,48.88
2022-08-17T01:52:24.867Z,49.15
2022-08-17T01:56:30.777Z,48.46
2022-08-17T02:00:59.484Z,48.07
2022-08-17T02:04:56.950Z,47.51
2022-08-17T02:09:02.810Z,47.25
2022-08-17T02:13:07.229Z,47.60
2022-08-17T02:17:10.430Z,47.56
2022-08-17T02:21:15.926Z,47.23
2022-08-17T02:25:19.901Z,46.72
2022-08-17T02:29:26.688Z,46.57
2022-08-17T02:33:41.832Z,47.30
2022-08-17T02:37:44.407Z,47.67
2022-08-17T02:41:48.838Z,47.26
2022-08-17T02:45:52.889Z,47.11
2022-08-17T02:49:56.176Z,46.74
2022-08-17T02:54:35.588Z,46.95
2022-08-17T02:58:34.958Z,47.67
2022-08-17T03:02:43.330Z,47.89
2022-08-17T03:06:42.903Z,48.14
2022-08-17T03:10:46.588Z,48.19
2022-08-17T03:14:50.095Z,48.88
2022-08-17T03:18:54.664Z,49.41
2022-08-17T03:23:02.956Z,49.47
2022-08-17T03:27:03.628Z,49.73
2022-08-17T03:31:07.712Z,49.82
2022-08-17T03:35:12.849Z,49.64
2022-08-17T03:39:13.035Z,49.42
2022-08-17T03:43:18.463Z,48.83
2022-08-17T03:47:37.261Z,48.63
2022-08-17T03:51:56.495Z,48.20
2022-08-17T03:56:17.838Z,48.66
2022-08-17T04:00:22.681Z,49.63
2022-08-17T04:04:27.719Z,50.65
2022-08-17T04:08:32.706Z,51.21
2022-08-17T04:13:01.987Z,50.64
2022-08-17T04:21:48.257Z,47.55
2022-08-17T04:25:53.399Z,44.87
2022-08-17T04:29:54.570Z,42.12
2022-08-17T04:33:56.492Z,40.76
2022-08-17T04:37:56.324Z,40.27
2022-08-17T04:42:17.149Z,39.83
2022-08-17T04:46:20.319Z,42.08
2022-08-17T04:50:21.025Z,40.62
2022-08-17T04:54:22.586Z,39.97
2022-08-17T04:58:33.931Z,37.88
2022-08-17T05:02:34.404Z,37.73
2022-08-17T05:06:34.377Z,37.76
2022-08-17T05:10:37.474Z,37.88
2022-08-17T05:14:52.762Z,38.32
2022-08-17T05:18:53.979Z,37.40
2022-08-17T05:22:55.392Z,37.79
2022-08-17T05:26:58.043Z,37.57
2022-08-17T05:31:05.587Z,37.60
2022-08-17T05:35:15.161Z,38.05
2022-08-17T05:39:18.442Z,38.75
2022-08-17T05:43:22.165Z,38.41
2022-08-17T05:47:30.809Z,39.48
2022-08-17T05:51:43.843Z,39.84
2022-08-17T05:56:11.617Z,39.55
2022-08-17T06:00:52.498Z,40.13
2022-08-17T06:05:13.017Z,40.70
2022-08-17T06:09:38.217Z,41.00
2022-08-17T06:13:55.657Z,40.52
2022-08-17T06:18:01.894Z,40.70
2022-08-17T06:22:06.052Z,41.04
2022-08-17T06:26:13.189Z,40.89
2022-08-17T06:30:16.622Z,42.45
2022-08-17T06:34:16.565Z,43.17
2022-08-17T06:38:37.406Z,44.00
2022-08-17T06:42:54.982Z,44.86
2022-08-17T06:47:28.456Z,45.08
2022-08-17T06:51:36.322Z,45.41
2022-08-17T06:55:59.141Z,43.30
2022-08-17T07:01:02.335Z,41.36
2022-08-17T07:05:03.915Z,41.11
2022-08-17T07:09:08.343Z,41.29
2022-08-17T07:13:29.281Z,40.49
2022-08-17T07:17:46.856Z,41.01
2022-08-17T07:21:54.809Z,40.19
2022-08-17T07:26:08.816Z,40.20
2022-08-17T07:30:27.182Z,39.90
2022-08-17T07:35:37.541Z,39.11
2022-08-17T07:45:30.242Z,38.93
2022-08-17T09:13:09.986Z,34.15
2022-08-17T14:18:55.588Z,27.43
2022-08-17T15:21:54.488Z,22.31
2022-08-17T16:31:55.506Z,28.31
2022-08-17T17:17:46.390Z,29.56
2022-08-17T17:21:51.686Z,29.91
2022-08-17T17:26:02.843Z,30.14
2022-08-17T17:35:43.464Z,31.28
2022-08-17T17:45:45.353Z,30.97
2022-08-17T17:49:49.310Z,30.98
2022-08-17T17:54:01.121Z,30.63
2022-08-17T17:58:39.699Z,30.50
2022-08-17T18:03:07.373Z,30.64
2022-08-17T18:07:29.406Z,30.74
2022-08-17T18:11:51.523Z,30.84
2022-08-17T18:16:01.116Z,31.11
2022-08-17T18:20:00.229Z,31.55
2022-08-17T18:24:02.494Z,31.58
2022-08-17T18:28:02.562Z,31.20
2022-08-17T18:32:27.543Z,31.12
2022-08-17T18:36:30.442Z,31.62
2022-08-17T18:40:39.334Z,31.92
2022-08-17T18:44:44.855Z,32.25
2022-08-17T18:48:59.120Z,32.83
2022-08-17T18:53:26.801Z,33.24
2022-08-17T18:57:34.686Z,33.24
2022-08-17T19:01:52.756Z,33.36
2022-08-17T19:05:58.090Z,33.47
2022-08-17T19:10:04.882Z,33.90
2022-08-17T19:14:08.490Z,34.05
2022-08-17T19:18:17.107Z,34.19
2022-08-17T19:22:29.100Z,34.21
2022-08-17T19:26:53.473Z,34.01
2022-08-17T19:31:02.868Z,34.71
2022-08-17T19:35:03.226Z,34.86
2022-08-17T19:39:13.211Z,35.67
2022-08-17T19:43:28.206Z,36.16
2022-08-17T19:47:54.325Z,36.78
2022-08-17T19:52:00.471Z,37.02
2022-08-17T19:56:11.041Z,37.51
2022-08-17T20:00:13.833Z,37.54
2022-08-17T20:04:18.954Z,37.77
2022-08-17T20:08:24.458Z,38.21
2022-08-17T20:12:32.861Z,39.18
2022-08-17T20:16:34.654Z,39.97
2022-08-17T20:20:46.876Z,40.76
2022-08-17T20:24:54.804Z,40.96
2022-08-17T20:29:39.655Z,41.03
2022-08-17T20:33:41.172Z,41.15
2022-08-17T20:37:45.184Z,40.99
2022-08-17T20:42:21.361Z,41.10
2022-08-17T20:46:53.180Z,40.96
2022-08-17T20:51:00.659Z,41.04
2022-08-17T20:55:02.341Z,41.80
2022-08-17T20:59:03.700Z,42.34
2022-08-17T21:03:51.441Z,43.12
2022-08-17T21:08:00.780Z,43.76
2022-08-17T21:12:05.433Z,44.87
2022-08-17T21:16:26.075Z,45.05
2022-08-17T21:20:32.488Z,45.14
2022-08-17T21:24:47.537Z,45.72
2022-08-17T21:29:17.883Z,46.04
2022-08-17T21:33:31.636Z,46.62
2022-08-17T21:37:43.100Z,46.13
2022-08-17T21:41:59.809Z,46.32
2022-08-17T21:46:06.138Z,46.66
2022-08-17T21:50:20.030Z,46.36
2022-08-17T21:54:34.454Z,45.75
2022-08-17T21:58:40.184Z,44.94
2022-08-17T22:02:44.089Z,44.89
2022-08-17T22:06:52.261Z,45.53
2022-08-17T22:11:03.949Z,44.40
2022-08-17T22:15:10.178Z,44.96
2022-08-17T22:19:12.863Z,45.58
2022-08-17T22:23:32.662Z,45.65
2022-08-17T22:27:49.055Z,45.55
2022-08-17T22:31:58.616Z,45.43
2022-08-17T22:36:16.808Z,46.57
2022-08-17T22:40:28.903Z,47.16
2022-08-17T22:44:33.922Z,47.22
2022-08-17T22:48:37.354Z,47.75
2022-08-17T22:52:59.553Z,48.49
2022-08-17T22:57:20.574Z,50.48
2022-08-17T23:01:29.719Z,51.67
2022-08-17T23:05:34.019Z,53.25
2022-08-17T23:09:34.577Z,54.28
2022-08-17T23:13:37.322Z,55.24
2022-08-17T23:17:37.801Z,54.95
2022-08-17T23:21:40.749Z,54.29
2022-08-17T23:25:44.308Z,53.78
2022-08-17T23:29:47.072Z,54.95
2022-08-17T23:33:59.153Z,56.50
2022-08-17T23:38:02.024Z,57.21
2022-08-17T23:42:14.532Z,56.29
2022-08-17T23:46:17.416Z,55.71
2022-08-17T23:50:23.080Z,55.64
2022-08-17T23:54:43.521Z,57.33
2022-08-17T23:58:47.064Z,57.14
